Terminal Aerodrome Forecast
Issued by NWS Sterling, VA

Home | Current Version | Previous Version | Text Only | Print | Product List | Glossary On
Versions: 1 2 3 4 5 6 7 8 9 10 11 12 13 14 15 16 17 18 19
000
FTUS41 KLWX 301400 AAC
TAFCHO
TAF AMD
KCHO 301446Z 3015/0112 00000KT 1 1/2SM BR OVC003
     FM301700 00000KT P6SM BKN050
     FM010000 00000KT P6SM SCT050
     FM010600 00000KT 6SM BR SCT250=

USA.gov is the U.S. government's official web portal to all federal, state and local government web resources and services.